RAMO2: Caney River, Ramona, OK

                                SHEF ID:       RAMO2     Caney River near Ramona, OK
STATION TYPE:
Regulating: Stage = 26.00, Flow = 15426

PRECIP STAGE STAGE(2) RIV-FLOW VOLTAGE BAT-LOAD
in ft ft cfs volt volt
Ccp-Rev Ccp-Rev Ccp-Rev Ccp-Rev Ccp-Rev Ccp-Rev
(America/Chicago)
04/25 00:00 0.00 14.31 99999.00 6903 12.90 ----
04/25 01:00 0.00 13.82 99999.00 6593 12.90 ----
04/25 02:00 0.00 13.34 99999.00 6289 12.80 ----
04/25 03:00 0.00 12.84 99999.00 5973 12.80 ----
04/25 04:00 0.00 12.36 99999.00 5671 12.80 ----
04/25 05:00 0.00 11.87 99999.00 5362 12.80 ----
04/25 06:00 0.00 11.40 99999.00 5067 12.80 ----
04/25 07:00 0.00 10.96 99999.00 4792 12.70 ----
04/25 08:00 0.00 10.53 99999.00 4523 12.80 ----
04/25 09:00 0.00 10.12 99999.00 4267 13.10 ----
04/25 10:00 0.00 9.75 99999.00 4037 13.60 ----
04/25 11:00 0.00 9.40 99999.00 3820 13.50 ----
04/25 12:00 0.00 9.06 99999.00 3609 13.60 ----
04/25 13:00 0.00 8.75 99999.00 3417 13.60 ----
04/25 14:00 0.00 8.47 99999.00 3245 13.60 ----
04/25 15:00 0.00 8.25 99999.00 3109 13.60 ----
04/25 16:00 0.00 8.02 99999.00 2968 13.60 ----
04/25 17:00 0.00 7.80 99999.00 2838 13.20 ----
04/25 18:00 0.00 7.62 99999.00 2733 13.20 ----
04/25 19:00 0.00 7.51 99999.00 2669 13.00 ----
04/25 20:00 0.00 7.34 99999.00 2569 12.90 ----
04/25 21:00 0.01 7.23 99999.00 2505 12.90 ----
04/25 22:00 0.00 7.12 99999.00 2441 12.90 ----
04/25 23:00 0.00 7.04 99999.00 2394 12.90 ----
Data processed at Sun 26Apr2026 04:01 GMT

NOTICE: If you are parsing this page

Please convert to using our Data API. Starting early 2026 we will be migrating to: https://water.usace.army.mil with modern pages rendered in JavaScript. When this migration completes you will no longer be able to scrape this page! CWMSDataAPI (CDA)

Timeseries IDs (TSIDs)

TSIDs used from left to right in the data table
RAMO.Precip-Inc.Total.1Hour.1Hour.Ccp-Rev
RAMO.Stage.Inst.1Hour.0.Ccp-Rev
RAMO.Stage-Alt.Inst.1Hour.0.Ccp-Rev
RAMO.Flow.Inst.1Hour.0.Ccp-Rev
RAMO.Volt-Battery.Inst.1Hour.0.Ccp-Rev
RAMO.Volt-Battery Load.Inst.1Hour.0.Ccp-Rev

                            

All information presented herein is the property of the government of the United States of America and may be revised or deleted at any time without prior notice. Dissemination of this information without the expressed written consent of the Public Affairs Office, Tulsa District U.S. Army Corps of Engineers is strictly prohibited. These data are gathered electronically and, as presented, have NOT undergone any form of quality control. These data are NOT guaranteed to be valid or correct.